createdAt,value
2019-04-04T00:01:05.277Z,19.27
2019-04-04T00:05:08.995Z,20.70
2019-04-04T00:09:13.686Z,20.02
2019-04-04T00:13:17.830Z,20.37
2019-04-04T00:17:23.327Z,20.14
2019-04-04T00:21:29.994Z,21.17
2019-04-04T00:25:33.822Z,21.20
2019-04-04T00:29:37.628Z,18.42
2019-04-04T00:33:41.239Z,18.98
2019-04-04T00:37:44.853Z,16.87
2019-04-04T00:41:48.479Z,14.68
2019-04-04T00:45:52.182Z,13.08
2019-04-04T00:49:55.806Z,12.53
2019-04-04T00:53:59.412Z,12.55
2019-04-04T00:58:03.133Z,13.65
2019-04-04T01:02:06.688Z,15.08
2019-04-04T01:06:10.250Z,14.50
2019-04-04T01:10:14.069Z,15.98
2019-04-04T01:14:17.692Z,15.33
2019-04-04T01:18:21.502Z,15.93
2019-04-04T01:22:25.673Z,17.20
2019-04-04T01:26:29.351Z,16.87
2019-04-04T01:30:33.173Z,15.67
2019-04-04T01:34:36.891Z,13.83
2019-04-04T01:38:40.549Z,14.35
2019-04-04T01:42:44.321Z,13.98
2019-04-04T01:46:47.935Z,13.62
2019-04-04T01:50:53.477Z,15.70
2019-04-04T01:54:57.005Z,14.10
2019-04-04T01:59:00.619Z,13.85
2019-04-04T02:03:04.455Z,14.75
2019-04-04T02:07:08.154Z,14.55
2019-04-04T02:11:11.775Z,15.18
2019-04-04T02:15:15.585Z,15.76
2019-04-04T02:19:19.265Z,15.43
2019-04-04T02:23:22.914Z,16.67
2019-04-04T02:27:26.635Z,15.80
2019-04-04T02:31:31.886Z,16.20
2019-04-04T02:35:35.511Z,16.52
2019-04-04T02:39:39.118Z,16.20
2019-04-04T02:43:42.728Z,14.73
2019-04-04T02:47:50.185Z,15.58
2019-04-04T02:51:51.804Z,13.93
2019-04-04T02:55:55.417Z,13.25
2019-04-04T02:59:59.131Z,14.25
2019-04-04T03:04:02.752Z,13.70
2019-04-04T03:08:06.457Z,12.00
2019-04-04T03:12:10.281Z,13.00
2019-04-04T03:16:14.009Z,13.45
2019-04-04T03:20:17.783Z,14.43
2019-04-04T03:24:21.423Z,14.73
2019-04-04T03:28:25.141Z,14.33
2019-04-04T03:32:28.857Z,15.40
2019-04-04T03:36:33.826Z,15.63
2019-04-04T03:40:41.608Z,15.38
2019-04-04T03:44:42.976Z,17.27
2019-04-04T03:48:49.673Z,14.47
2019-04-04T03:52:52.056Z,14.40
2019-04-04T03:56:55.771Z,14.63
2019-04-04T04:00:59.376Z,14.45
2019-04-04T04:05:03.097Z,16.23
2019-04-04T04:09:06.807Z,14.73
2019-04-04T04:13:10.529Z,14.73
2019-04-04T04:17:14.140Z,13.72
2019-04-04T04:21:17.966Z,12.63
2019-04-04T04:25:21.579Z,12.33
2019-04-04T04:29:29.366Z,13.00
2019-04-04T04:33:30.743Z,13.90
2019-04-04T04:37:34.356Z,11.70
2019-04-04T04:41:38.074Z,11.68
2019-04-04T04:45:45.237Z,12.63
2019-04-04T04:49:49.000Z,12.35
2019-04-04T04:53:52.706Z,11.57
2019-04-04T04:57:56.746Z,11.68
2019-04-04T05:02:00.566Z,12.73
2019-04-04T05:06:04.293Z,13.60
2019-04-04T05:10:08.207Z,11.88
2019-04-04T05:14:11.762Z,12.40
2019-04-04T05:18:16.348Z,13.63
2019-04-04T05:22:20.677Z,13.47
2019-04-04T05:26:24.379Z,12.63
2019-04-04T05:30:28.094Z,13.30
2019-04-04T05:34:31.704Z,14.35
2019-04-04T05:38:35.522Z,13.00
2019-04-04T05:42:39.143Z,13.75
2019-04-04T05:46:42.906Z,13.88
2019-04-04T05:50:46.706Z,13.45
2019-04-04T05:54:50.490Z,13.48
2019-04-04T05:58:54.228Z,13.05
2019-04-04T06:02:58.073Z,14.35
2019-04-04T06:07:04.001Z,16.75
2019-04-04T06:11:07.411Z,17.37
2019-04-04T06:15:12.351Z,17.75
2019-04-04T06:19:16.073Z,17.65
2019-04-04T06:23:20.614Z,17.73
2019-04-04T06:27:24.551Z,18.40
2019-04-04T06:31:30.835Z,17.25
2019-04-04T06:35:35.216Z,18.52
2019-04-04T06:39:39.179Z,18.75
2019-04-04T06:43:42.771Z,18.23
2019-04-04T06:47:46.376Z,20.12
2019-04-04T06:51:49.994Z,20.60
2019-04-04T06:55:53.780Z,18.42
2019-04-04T06:59:57.431Z,20.32
2019-04-04T07:04:01.144Z,20.23
2019-04-04T07:08:04.754Z,22.10
2019-04-04T07:12:20.360Z,21.23
2019-04-04T07:16:14.028Z,21.87
2019-04-04T07:20:17.641Z,21.27
2019-04-04T07:24:21.257Z,22.82
2019-04-04T07:28:24.969Z,22.87
2019-04-04T07:32:28.586Z,22.65
2019-04-04T07:36:32.200Z,24.45
2019-04-04T07:40:37.046Z,25.62
2019-04-04T07:44:41.063Z,26.10
2019-04-04T07:48:44.680Z,26.55
2019-04-04T07:52:48.296Z,26.23
2019-04-04T07:56:51.826Z,27.32
2019-04-04T08:00:55.566Z,27.00
2019-04-04T08:04:59.141Z,29.65
2019-04-04T08:09:04.453Z,28.45
2019-04-04T08:13:08.132Z,29.87
2019-04-04T08:17:11.747Z,29.60
2019-04-04T08:21:15.339Z,29.35
2019-04-04T08:25:19.044Z,30.92
2019-04-04T08:29:22.760Z,28.67
2019-04-04T08:33:26.375Z,29.72
2019-04-04T08:37:30.089Z,30.23
2019-04-04T08:41:33.708Z,33.53
2019-04-04T08:45:37.427Z,33.08
2019-04-04T08:49:41.034Z,33.65
2019-04-04T08:53:44.752Z,35.15
2019-04-04T08:57:48.370Z,35.85
2019-04-04T09:01:51.976Z,36.28
2019-04-04T09:05:55.694Z,34.92
2019-04-04T09:09:59.310Z,36.93
2019-04-04T09:14:03.606Z,37.78
2019-04-04T09:18:07.445Z,36.38
2019-04-04T09:22:11.908Z,38.05
2019-04-04T09:26:15.605Z,40.73
2019-04-04T09:30:20.465Z,39.20
2019-04-04T09:34:24.168Z,42.07
2019-04-04T09:38:29.258Z,37.90
2019-04-04T09:42:32.929Z,39.85
2019-04-04T09:46:36.648Z,42.03
2019-04-04T09:50:40.261Z,40.60
2019-04-04T09:54:43.878Z,39.80
2019-04-04T09:58:47.485Z,41.95
2019-04-04T10:02:51.190Z,41.98
2019-04-04T10:06:54.817Z,40.25
2019-04-04T10:10:58.430Z,41.65
2019-04-04T10:15:02.052Z,43.65
2019-04-04T10:19:05.678Z,41.73
2019-04-04T10:23:09.271Z,42.00
2019-04-04T10:27:12.808Z,42.70
2019-04-04T10:31:16.399Z,40.47
2019-04-04T10:35:19.951Z,42.62
2019-04-04T10:39:29.365Z,41.73
2019-04-04T10:43:28.877Z,42.13
2019-04-04T10:47:32.495Z,41.10
2019-04-04T10:51:36.115Z,41.98
2019-04-04T10:55:39.801Z,43.08
2019-04-04T10:59:43.374Z,44.75
2019-04-04T11:03:46.955Z,43.63
2019-04-04T11:07:50.566Z,41.98
2019-04-04T11:11:54.179Z,43.98
2019-04-04T11:15:57.817Z,40.40
2019-04-04T11:20:01.461Z,36.83
2019-04-04T11:24:05.126Z,35.08
2019-04-04T11:28:08.739Z,36.13
2019-04-04T11:32:12.355Z,33.73
2019-04-04T11:36:16.482Z,32.08
2019-04-04T11:40:20.097Z,33.63
2019-04-04T11:44:23.707Z,30.35
2019-04-04T11:48:30.086Z,29.20
2019-04-04T11:52:33.705Z,28.23
2019-04-04T11:56:37.272Z,29.55
2019-04-04T12:00:42.566Z,28.30
2019-04-04T12:04:46.181Z,28.77
2019-04-04T12:08:49.792Z,28.87
2019-04-04T12:12:53.500Z,30.40
2019-04-04T12:16:57.225Z,31.23
2019-04-04T12:21:00.844Z,30.48
2019-04-04T12:25:05.582Z,29.63
2019-04-04T12:29:09.194Z,31.70
2019-04-04T12:33:12.836Z,30.72
2019-04-04T12:37:16.529Z,32.40
2019-04-04T12:41:20.149Z,29.90
2019-04-04T12:45:23.753Z,30.70
2019-04-04T12:49:27.368Z,31.60
2019-04-04T12:53:32.761Z,33.00
2019-04-04T12:57:36.648Z,30.95
2019-04-04T13:01:40.193Z,31.23
2019-04-04T13:05:43.912Z,31.48
2019-04-04T13:09:47.491Z,30.20
2019-04-04T13:13:51.098Z,30.97
2019-04-04T13:17:54.718Z,30.62
2019-04-04T13:21:58.431Z,32.25
2019-04-04T13:26:02.043Z,33.00
2019-04-04T13:30:10.671Z,35.10
2019-04-04T13:34:14.269Z,31.83
2019-04-04T13:38:17.940Z,32.97
2019-04-04T13:42:21.618Z,35.40
2019-04-04T13:46:29.183Z,36.05
2019-04-04T13:50:30.585Z,34.55
2019-04-04T13:54:34.201Z,34.43
2019-04-04T13:58:37.767Z,35.00
2019-04-04T14:02:41.496Z,36.45
2019-04-04T14:06:45.043Z,37.28
2019-04-04T14:10:58.161Z,38.35
2019-04-04T14:14:54.264Z,39.05
2019-04-04T14:18:57.829Z,40.15
2019-04-04T14:23:01.747Z,37.45
2019-04-04T14:27:05.574Z,39.73
2019-04-04T14:31:09.183Z,38.15
2019-04-04T14:35:13.308Z,39.60
2019-04-04T14:39:17.024Z,37.70
2019-04-04T14:43:20.661Z,38.75
2019-04-04T14:47:24.250Z,36.40
2019-04-04T14:51:27.867Z,37.45
2019-04-04T14:55:31.583Z,39.48
2019-04-04T14:59:35.197Z,38.13
2019-04-04T15:03:38.745Z,40.33
2019-04-04T15:07:42.362Z,41.28
2019-04-04T15:11:45.914Z,41.28
2019-04-04T15:16:11.988Z,42.45
2019-04-04T15:20:15.999Z,40.75
2019-04-04T15:24:19.717Z,38.28
2019-04-04T15:28:26.027Z,39.23
2019-04-04T15:32:28.545Z,40.03
2019-04-04T15:36:34.864Z,38.15
2019-04-04T15:40:38.572Z,39.50
2019-04-04T15:44:42.159Z,39.23
2019-04-04T15:48:45.909Z,38.40
2019-04-04T15:52:49.517Z,37.90
2019-04-04T15:56:53.235Z,38.67
2019-04-04T16:00:56.848Z,39.27
2019-04-04T16:05:00.473Z,41.42
2019-04-04T16:09:05.929Z,39.20
2019-04-04T16:13:09.456Z,38.50
2019-04-04T16:17:15.815Z,41.20
2019-04-04T16:21:19.435Z,41.50
2019-04-04T16:25:23.148Z,40.85
2019-04-04T16:29:26.869Z,42.40
2019-04-04T16:33:30.508Z,40.17
2019-04-04T16:37:34.195Z,38.60
2019-04-04T16:41:37.911Z,40.03
2019-04-04T16:45:41.475Z,40.17
2019-04-04T16:49:45.143Z,41.00
2019-04-04T16:53:48.698Z,39.13
2019-04-04T16:57:52.361Z,38.50
2019-04-04T17:01:55.982Z,38.92
2019-04-04T17:05:59.594Z,38.67
2019-04-04T17:10:03.589Z,40.58
2019-04-04T17:14:07.332Z,40.25
2019-04-04T17:18:10.946Z,40.83
2019-04-04T17:22:14.561Z,41.18
2019-04-04T17:26:18.177Z,40.30
2019-04-04T17:30:22.178Z,40.47
2019-04-04T17:34:26.306Z,41.70
2019-04-04T17:38:30.467Z,40.15
2019-04-04T17:42:34.453Z,41.02
2019-04-04T17:46:38.092Z,41.95
2019-04-04T17:50:41.664Z,41.30
2019-04-04T17:54:45.317Z,43.00
2019-04-04T17:58:48.933Z,42.17
2019-04-04T18:02:52.554Z,44.03
2019-04-04T18:06:56.185Z,42.85
2019-04-04T18:11:00.287Z,44.65
2019-04-04T18:15:05.854Z,44.75
2019-04-04T18:19:09.524Z,45.48
2019-04-04T18:23:15.198Z,45.65
2019-04-04T18:27:18.530Z,47.15
2019-04-04T18:31:22.355Z,47.62
2019-04-04T18:35:26.722Z,46.18
2019-04-04T18:39:30.378Z,46.35
2019-04-04T18:43:34.217Z,59.50
2019-04-04T18:47:37.829Z,50.98
2019-04-04T18:51:41.502Z,48.75
2019-04-04T18:55:45.146Z,49.88
2019-04-04T18:59:48.690Z,52.95
2019-04-04T19:03:52.729Z,50.70
2019-04-04T19:07:56.510Z,51.92
2019-04-04T19:12:00.337Z,53.80
2019-04-04T19:16:04.558Z,51.68
2019-04-04T19:20:10.469Z,53.08
2019-04-04T19:24:14.440Z,47.90
2019-04-04T19:28:18.264Z,55.63
2019-04-04T19:32:22.316Z,54.18
2019-04-04T19:36:25.902Z,87.75
2019-04-04T19:40:29.977Z,49.67
2019-04-04T19:44:34.161Z,42.13
2019-04-04T19:48:38.217Z,42.50
2019-04-04T19:52:41.795Z,41.40
2019-04-04T19:56:46.047Z,42.55
2019-04-04T20:00:50.143Z,41.25
2019-04-04T20:04:54.103Z,36.70
2019-04-04T20:08:57.989Z,34.45
2019-04-04T20:13:02.056Z,34.75
2019-04-04T20:17:06.412Z,34.98
2019-04-04T20:21:10.442Z,33.80
2019-04-04T20:25:14.416Z,33.00
2019-04-04T20:29:18.616Z,31.55
2019-04-04T20:33:23.155Z,33.70
2019-04-04T20:37:27.189Z,32.75
2019-04-04T20:41:31.342Z,32.03
2019-04-04T20:45:35.015Z,32.55
2019-04-04T20:49:39.070Z,28.98
2019-04-04T20:53:43.197Z,30.43
2019-04-04T20:57:46.785Z,28.77
2019-04-04T21:01:50.441Z,30.20
2019-04-04T21:05:54.466Z,29.90
2019-04-04T21:09:58.073Z,30.00
2019-04-04T21:14:01.678Z,28.47
2019-04-04T21:18:05.254Z,29.97
2019-04-04T21:22:08.903Z,29.70
2019-04-04T21:26:12.521Z,29.60
2019-04-04T21:30:16.338Z,29.57
2019-04-04T21:34:20.058Z,31.17
2019-04-04T21:38:24.531Z,31.52
2019-04-04T21:42:28.305Z,32.30
2019-04-04T21:46:32.136Z,35.08
2019-04-04T21:50:38.202Z,33.33
2019-04-04T21:54:41.595Z,34.27
2019-04-04T21:58:45.631Z,32.98
2019-04-04T22:02:49.560Z,33.67
2019-04-04T22:06:53.267Z,34.63
2019-04-04T22:10:56.980Z,36.25
2019-04-04T22:15:00.604Z,40.33
2019-04-04T22:19:04.312Z,40.58
2019-04-04T22:23:08.029Z,38.53
2019-04-04T22:27:11.669Z,40.52
2019-04-04T22:31:15.254Z,38.23
2019-04-04T22:35:18.971Z,40.25
2019-04-04T22:39:22.583Z,39.65
2019-04-04T22:43:26.198Z,38.73
2019-04-04T22:47:30.016Z,41.45
2019-04-04T22:51:33.629Z,41.65
2019-04-04T22:55:37.348Z,40.75
2019-04-04T22:59:40.968Z,45.78
2019-04-04T23:03:44.683Z,44.93
2019-04-04T23:07:48.396Z,42.58
2019-04-04T23:11:52.012Z,46.15
2019-04-04T23:15:55.623Z,45.00
2019-04-04T23:19:59.237Z,46.40
2019-04-04T23:24:02.851Z,47.33
2019-04-04T23:28:06.775Z,48.28
2019-04-04T23:32:10.394Z,51.25
2019-04-04T23:36:13.998Z,48.63
2019-04-04T23:40:17.614Z,51.10
2019-04-04T23:44:21.228Z,51.30
2019-04-04T23:48:24.842Z,50.20
2019-04-04T23:52:28.554Z,49.73
2019-04-04T23:56:32.168Z,50.30
